Time;durP1;ratioP1;P1;durP2;ratioP2;P2;SDS_P1;SDS_P2;PMS_P1;PMS_P2;Temp;Humidity;BMP_temperature;BMP_pressure;BME280_temperature;BME280_humidity;BME280_pressure;Samples;Min_cycle;Max_cycle;Signal;HPM_P1;HPM_P2
2021/09/21 00:00:31;;;;;;;4.22;2.80;;;;;;;18.00;60.03;102846.19;5045852;28;20433;-77
2021/09/21 00:02:56;;;;;;;4.22;2.90;;;;;;;18.11;59.78;102856.38;5007537;28;20101;-77
2021/09/21 00:05:22;;;;;;;5.07;2.88;;;;;;;17.93;60.09;102863.25;5024405;28;20029;-78
2021/09/21 00:07:47;;;;;;;4.28;2.88;;;;;;;18.08;59.82;102866.22;5020651;28;20021;-77
2021/09/21 00:10:13;;;;;;;2.80;2.60;;;;;;;17.96;60.08;102857.84;5024653;28;20037;-77
2021/09/21 00:12:38;;;;;;;6.40;3.25;;;;;;;17.93;60.08;102859.75;5023909;28;20347;-77
2021/09/21 00:15:05;;;;;;;3.95;2.58;;;;;;;17.98;60.07;102849.84;5008086;28;20030;-77
2021/09/21 00:17:30;;;;;;;5.18;2.72;;;;;;;18.03;60.10;102847.88;5007220;28;20210;-78
2021/09/21 00:19:55;;;;;;;4.65;2.72;;;;;;;18.03;59.65;102850.53;5033871;28;20051;-78
2021/09/21 00:22:21;;;;;;;4.50;2.92;;;;;;;17.95;60.21;102853.47;5025792;28;20037;-78
2021/09/21 00:24:46;;;;;;;4.63;2.70;;;;;;;18.16;59.59;102859.69;5027066;28;20104;-77
2021/09/21 00:27:12;;;;;;;5.15;3.13;;;;;;;17.96;59.49;102865.81;5016639;28;20333;-77
2021/09/21 00:29:37;;;;;;;5.72;2.75;;;;;;;17.99;59.66;102852.44;5024829;28;20341;-77
2021/09/21 00:32:03;;;;;;;6.13;3.10;;;;;;;17.96;60.11;102851.69;5033026;28;20053;-77
2021/09/21 00:34:37;;;;;;;2.80;2.50;;;;;;;17.86;60.30;102850.31;5042821;28;20037;-77
2021/09/21 00:37:04;;;;;;;8.55;2.60;;;;;;;17.88;60.08;102853.78;5008463;28;20073;-77
2021/09/21 00:39:29;;;;;;;4.97;2.58;;;;;;;17.88;60.01;102853.78;4988965;28;20367;-77
2021/09/21 00:41:54;;;;;;;4.68;2.90;;;;;;;17.95;60.30;102855.25;5007351;28;20026;-78
2021/09/21 00:44:20;;;;;;;3.20;2.90;;;;;;;17.88;60.30;102861.72;5007599;28;20096;-77
2021/09/21 00:46:46;;;;;;;6.10;3.05;;;;;;;17.80;60.13;102867.31;5023352;28;20033;-77
2021/09/21 00:49:14;;;;;;;6.68;2.28;;;;;;;17.76;60.35;102865.69;5011565;28;20037;-78
2021/09/21 00:51:40;;;;;;;5.05;2.47;;;;;;;17.84;59.69;102861.84;4988354;28;20049;-78
2021/09/21 00:54:05;;;;;;;3.28;2.80;;;;;;;17.84;60.11;102866.25;5025574;28;20049;-78
2021/09/21 00:56:31;;;;;;;4.47;2.53;;;;;;;17.90;60.11;102871.34;5020384;28;20077;-77
2021/09/21 00:58:56;;;;;;;2.78;2.38;;;;;;;17.78;60.30;102882.41;5002923;28;20052;-78
2021/09/21 01:04:58;;;;;;;4.55;2.72;;;;;;;17.69;60.22;102880.09;5007707;28;20033;-77
2021/09/21 01:07:23;;;;;;;2.60;2.40;;;;;;;17.94;59.55;102875.59;5010787;28;20052;-77
2021/09/21 01:09:48;;;;;;;3.15;2.20;;;;;;;17.78;60.29;102861.19;5007264;28;20038;-77
2021/09/21 01:12:14;;;;;;;3.40;2.85;;;;;;;17.77;60.14;102862.09;5002382;28;20044;-77
2021/09/21 01:14:39;;;;;;;3.22;2.60;;;;;;;17.77;60.18;102856.81;5002297;28;20045;-77
2021/09/21 01:17:05;;;;;;;2.92;2.47;;;;;;;17.72;60.08;102859.66;5021720;28;20213;-77
2021/09/21 01:19:30;;;;;;;4.28;2.30;;;;;;;17.65;60.23;102864.31;4996941;28;20384;-77
2021/09/21 01:21:55;;;;;;;5.72;2.35;;;;;;;17.62;60.38;102861.78;5004200;28;20364;-77
2021/09/21 01:24:21;;;;;;;5.43;2.22;;;;;;;17.75;60.17;102854.22;5022143;28;20050;-77
2021/09/21 01:26:47;;;;;;;2.53;2.33;;;;;;;17.63;60.51;102836.16;5001736;28;20034;-78
2021/09/21 01:29:12;;;;;;;4.65;2.30;;;;;;;17.85;59.45;102841.53;5005419;28;20040;-77
2021/09/21 01:31:39;;;;;;;2.72;2.53;;;;;;;17.74;59.89;102831.31;5023191;28;20048;-77
2021/09/21 01:34:05;;;;;;;4.07;2.63;;;;;;;17.61;60.13;102835.38;5023272;28;20037;-78
2021/09/21 01:36:30;;;;;;;7.50;2.65;;;;;;;17.61;60.17;102833.56;5005419;28;20052;-77
2021/09/21 01:38:56;;;;;;;3.58;2.40;;;;;;;17.61;60.32;102836.22;5015437;28;20120;-77
2021/09/21 01:41:21;;;;;;;2.72;2.53;;;;;;;17.60;60.35;102837.13;5000017;28;20022;-78
2021/09/21 01:43:47;;;;;;;5.10;2.70;;;;;;;17.56;60.34;102843.47;5021914;28;20260;-78
2021/09/21 01:46:15;;;;;;;2.53;2.05;;;;;;;17.57;60.39;102846.97;4981934;28;20257;-77
2021/09/21 01:48:40;;;;;;;4.32;2.60;;;;;;;17.60;60.08;102854.81;4992178;28;20038;-77
2021/09/21 01:51:11;;;;;;;2.40;2.20;;;;;;;17.61;60.09;102852.13;5018214;28;20038;-77
2021/09/21 01:58:58;;;;;;;3.03;2.53;;;;;;;17.58;60.23;102852.22;5009600;28;20524;-78
2021/09/21 02:01:24;;;;;;;2.70;2.47;;;;;;;17.62;60.34;102847.69;5048540;28;20053;-78
2021/09/21 02:03:51;;;;;;;2.95;2.72;;;;;;;17.44;60.51;102831.59;5041500;28;20033;-77
2021/09/21 02:06:16;;;;;;;5.40;3.88;;;;;;;17.43;60.66;102837.78;5005918;28;20226;-77
2021/09/21 02:08:42;;;;;;;2.88;2.67;;;;;;;17.44;60.35;102833.34;5021228;28;20040;-77
2021/09/21 02:11:10;;;;;;;4.07;2.50;;;;;;;17.52;60.15;102833.03;5021085;28;20046;-77
2021/09/21 02:13:36;;;;;;;2.75;2.35;;;;;;;17.47;60.24;102830.59;5005373;28;20058;-77
2021/09/21 02:16:02;;;;;;;3.17;2.20;;;;;;;17.54;60.25;102833.88;5003304;28;20101;-77
2021/09/21 02:18:27;;;;;;;4.18;2.20;;;;;;;17.50;60.57;102832.25;4990328;28;20034;-77
2021/09/21 02:20:53;;;;;;;2.45;1.90;;;;;;;17.50;60.26;102845.50;4992343;28;20037;-77
2021/09/21 02:23:18;;;;;;;5.53;2.17;;;;;;;17.42;60.39;102848.44;5002277;28;20042;-76
2021/09/21 02:25:44;;;;;;;2.53;2.00;;;;;;;17.31;60.70;102847.97;5003498;28;20033;-77
2021/09/21 02:28:09;;;;;;;4.13;2.20;;;;;;;17.34;60.44;102851.38;5002632;28;20050;-77
2021/09/21 02:30:35;;;;;;;3.47;2.35;;;;;;;17.35;60.69;102850.44;5040066;28;20108;-77
2021/09/21 02:33:01;;;;;;;2.22;1.95;;;;;;;17.35;60.68;102847.78;5030905;28;20400;-77
2021/09/21 02:35:26;;;;;;;2.15;1.95;;;;;;;17.48;60.07;102842.03;5014413;28;20053;-77
2021/09/21 02:37:52;;;;;;;4.47;2.17;;;;;;;17.32;60.70;102844.41;5021911;28;20068;-77
2021/09/21 02:40:18;;;;;;;2.63;2.42;;;;;;;17.40;60.23;102851.13;4984183;28;20051;-76
2021/09/21 02:42:43;;;;;;;2.85;2.65;;;;;;;17.32;60.79;102842.63;5020791;28;20141;-77
2021/09/21 02:45:09;;;;;;;3.60;2.05;;;;;;;17.33;60.61;102844.34;5020679;28;20249;-77
2021/09/21 02:47:35;;;;;;;2.10;1.90;;;;;;;17.34;60.67;102845.22;4989635;28;20030;-77
2021/09/21 02:50:00;;;;;;;3.15;2.03;;;;;;;17.24;60.70;102857.94;5020026;28;20383;-78
2021/09/21 02:52:26;;;;;;;3.53;1.73;;;;;;;17.27;60.83;102863.13;4984745;28;20241;-77
2021/09/21 02:54:51;;;;;;;2.40;2.20;;;;;;;17.33;60.67;102868.19;4988508;28;20041;-79
2021/09/21 02:57:16;;;;;;;3.55;2.10;;;;;;;17.36;60.36;102870.72;5004736;28;20270;-77
2021/09/21 02:59:42;;;;;;;4.97;2.10;;;;;;;17.24;60.78;102871.16;5022768;28;20364;-77
2021/09/21 03:02:07;;;;;;;2.42;2.22;;;;;;;17.28;60.57;102870.13;5022830;28;20030;-77
2021/09/21 03:04:39;;;;;;;2.22;1.95;;;;;;;17.19;60.61;102868.69;5004406;28;20371;-77
2021/09/21 03:07:08;;;;;;;2.03;1.83;;;;;;;17.33;60.53;102880.56;5004235;28;20038;-78
2021/09/21 03:17:28;;;;;;;2.33;2.13;;;;;;;17.17;60.75;102880.25;5006691;28;20083;-77
2021/09/21 03:19:57;;;;;;;3.05;1.90;;;;;;;17.24;60.40;102879.97;5016078;28;20103;-77
2021/09/21 03:22:23;;;;;;;1.98;1.88;;;;;;;17.21;60.56;102882.75;5021663;28;20046;-78
2021/09/21 03:24:49;;;;;;;2.05;1.92;;;;;;;17.24;60.37;102893.19;5005709;28;20272;-77
2021/09/21 03:27:14;;;;;;;1.95;1.77;;;;;;;17.23;60.40;102888.00;5005074;28;20054;-78
2021/09/21 03:29:40;;;;;;;2.17;1.98;;;;;;;17.21;60.62;102895.97;5031243;28;20034;-77
2021/09/21 03:32:05;;;;;;;5.30;1.88;;;;;;;17.16;60.69;102892.63;5042163;28;20061;-77
2021/09/21 03:34:32;;;;;;;4.05;2.33;;;;;;;17.13;60.70;102892.72;5041275;28;20041;-77
2021/09/21 03:36:58;;;;;;;2.90;2.13;;;;;;;17.24;60.31;102892.34;5009396;28;20329;-78
2021/09/21 03:39:23;;;;;;;2.08;1.88;;;;;;;17.15;60.67;102897.97;4985976;28;20223;-78
2021/09/21 03:41:48;;;;;;;2.30;2.10;;;;;;;17.18;60.45;102909.31;5002796;28;20040;-78
2021/09/21 03:44:14;;;;;;;3.45;2.50;;;;;;;17.10;60.71;102911.38;4985700;28;20065;-78
2021/09/21 03:46:39;;;;;;;2.08;1.98;;;;;;;17.19;60.49;102920.75;5014365;28;20041;-77
2021/09/21 03:49:05;;;;;;;2.10;1.90;;;;;;;17.10;60.67;102923.75;5006266;28;20046;-78
2021/09/21 03:51:30;;;;;;;5.45;2.15;;;;;;;17.10;60.79;102919.34;4988716;28;20762;-77
2021/09/21 03:53:56;;;;;;;2.30;1.85;;;;;;;17.08;60.77;102915.84;5003029;28;20218;-78
2021/09/21 03:56:21;;;;;;;2.10;2.00;;;;;;;17.04;60.55;102912.44;4991044;28;20042;-77
2021/09/21 03:58:47;;;;;;;2.20;2.00;;;;;;;16.94;60.87;102920.78;5007353;28;20030;-77
2021/09/21 04:01:12;;;;;;;3.97;1.90;;;;;;;17.02;60.90;102932.81;5041666;28;20029;-77
2021/09/21 04:03:38;;;;;;;2.67;1.80;;;;;;;17.06;60.43;102928.28;5040290;28;20041;-77
2021/09/21 04:06:03;;;;;;;2.80;1.80;;;;;;;17.07;60.52;102922.06;4971536;28;20038;-77
2021/09/21 04:08:28;;;;;;;4.05;2.25;;;;;;;17.01;60.75;102920.50;5012595;28;20053;-77
2021/09/21 04:10:54;;;;;;;2.03;1.80;;;;;;;17.10;60.31;102923.75;5013549;28;20033;-77
2021/09/21 04:13:19;;;;;;;3.85;1.88;;;;;;;16.99;60.99;102913.53;5004205;28;20034;-77
2021/09/21 04:15:45;;;;;;;3.13;2.08;;;;;;;17.01;60.73;102915.22;5017536;28;20045;-78
2021/09/21 04:18:10;;;;;;;3.28;2.22;;;;;;;17.04;60.36;102917.75;4986343;28;20033;-77
2021/09/21 04:20:35;;;;;;;2.17;1.98;;;;;;;17.00;60.44;102918.78;4993523;28;20052;-77
2021/09/21 04:23:01;;;;;;;2.03;1.85;;;;;;;16.97;60.54;102929.50;4986618;28;20037;-78
2021/09/21 04:25:28;;;;;;;2.13;1.70;;;;;;;16.98;60.83;102925.06;5002055;28;20076;-77
2021/09/21 04:27:54;;;;;;;2.78;2.00;;;;;;;17.02;60.60;102926.66;5012936;28;20040;-77
2021/09/21 04:30:22;;;;;;;1.60;1.50;;;;;;;16.86;61.19;102923.66;5032413;28;20333;-78
2021/09/21 04:32:51;;;;;;;1.88;1.77;;;;;;;16.88;60.99;102938.59;5040885;28;20037;-78
2021/09/21 04:35:17;;;;;;;2.47;2.25;;;;;;;16.82;61.03;102936.09;5041365;28;20053;-78
2021/09/21 04:37:42;;;;;;;2.20;2.00;;;;;;;16.85;60.92;102943.13;5018588;28;20140;-77
2021/09/21 04:40:09;;;;;;;2.38;2.17;;;;;;;16.85;61.08;102949.28;5021354;28;20268;-78
2021/09/21 04:42:34;;;;;;;2.70;1.90;;;;;;;16.96;60.57;102954.22;4992494;28;20030;-78
2021/09/21 04:44:59;;;;;;;3.40;1.92;;;;;;;16.98;60.35;102955.03;5020395;28;20060;-77
2021/09/21 04:47:25;;;;;;;2.03;1.90;;;;;;;17.01;60.57;102962.88;5011616;28;20041;-78
2021/09/21 04:49:50;;;;;;;3.78;2.70;;;;;;;16.95;60.53;102962.19;5018782;28;20036;-77
2021/09/21 04:52:16;;;;;;;5.38;2.63;;;;;;;16.77;61.63;102961.00;5000639;28;20105;-79
2021/09/21 04:54:42;;;;;;;2.67;2.47;;;;;;;16.73;61.58;102949.66;5000980;28;20030;-77
2021/09/21 04:57:07;;;;;;;2.80;2.60;;;;;;;16.81;61.39;102949.41;5021174;28;20038;-78
2021/09/21 04:59:33;;;;;;;4.25;2.55;;;;;;;16.69;61.45;102959.47;5004212;28;20052;-79
2021/09/21 05:01:58;;;;;;;2.90;2.70;;;;;;;16.67;61.66;102960.44;5010678;28;20049;-78
2021/09/21 05:04:24;;;;;;;4.75;2.97;;;;;;;16.72;61.76;102969.09;5006093;28;20037;-78
2021/09/21 05:06:49;;;;;;;2.53;2.28;;;;;;;16.80;61.37;102961.75;5034057;28;20025;-78
2021/09/21 05:09:15;;;;;;;3.30;3.03;;;;;;;16.50;62.16;102964.50;5022232;28;20345;-79
2021/09/21 05:11:41;;;;;;;4.75;2.58;;;;;;;16.62;62.01;102968.53;5006021;28;20038;-78
2021/09/21 05:14:07;;;;;;;2.90;2.70;;;;;;;16.57;62.06;102972.22;4999775;28;20124;-78
2021/09/21 05:16:33;;;;;;;3.60;3.30;;;;;;;16.63;61.62;102978.19;4985658;28;20032;-79
2021/09/21 05:18:59;;;;;;;3.67;2.80;;;;;;;16.69;61.64;102978.00;5001132;28;20095;-77
2021/09/21 05:21:24;;;;;;;3.25;2.97;;;;;;;16.75;61.46;102974.28;5012176;28;20285;-78
2021/09/21 05:23:53;;;;;;;4.22;2.40;;;;;;;16.69;61.54;102975.34;5002977;28;20052;-77
2021/09/21 05:26:18;;;;;;;2.70;2.17;;;;;;;16.63;62.44;102974.69;5010241;28;20050;-77
2021/09/21 05:28:44;;;;;;;3.15;2.50;;;;;;;16.56;62.64;102984.59;5010724;28;20245;-77
2021/09/21 05:31:09;;;;;;;2.78;2.53;;;;;;;16.53;62.19;102989.97;5002021;28;20042;-77
2021/09/21 05:33:34;;;;;;;2.40;2.20;;;;;;;16.49;62.53;102991.00;5007397;28;20034;-77
2021/09/21 05:36:00;;;;;;;5.03;2.90;;;;;;;16.55;61.75;102982.00;5035894;28;20086;-77
2021/09/21 05:38:26;;;;;;;5.78;2.95;;;;;;;16.60;61.18;102986.22;5033692;28;20030;-77
2021/09/21 05:40:52;;;;;;;15.88;3.30;;;;;;;16.59;61.49;102981.88;5024865;28;20025;-77
2021/09/21 05:43:17;;;;;;;7.13;3.45;;;;;;;16.73;61.17;102989.34;5039031;28;20052;-77
2021/09/21 05:45:43;;;;;;;10.25;3.70;;;;;;;16.59;61.95;102989.81;5001071;28;20056;-80
2021/09/21 05:48:08;;;;;;;6.85;3.83;;;;;;;16.72;62.14;102984.97;5002401;28;20045;-79
2021/09/21 05:50:34;;;;;;;4.65;4.05;;;;;;;16.91;61.77;102979.97;5009900;28;20278;-79
2021/09/21 05:52:59;;;;;;;12.10;3.95;;;;;;;16.88;61.75;102977.41;5010515;28;20045;-79
2021/09/21 05:55:27;;;;;;;10.05;3.90;;;;;;;16.85;62.12;102980.19;5018695;28;20051;-79
2021/09/21 05:57:53;;;;;;;18.55;4.43;;;;;;;17.04;62.30;102972.47;5001852;28;20048;-78
2021/09/21 06:00:18;;;;;;;8.38;3.70;;;;;;;17.15;61.38;102980.03;5047143;28;20037;-79
2021/09/21 06:02:44;;;;;;;10.57;4.07;;;;;;;17.34;60.27;102986.44;4986965;28;20073;-78
2021/09/21 06:05:09;;;;;;;10.73;4.55;;;;;;;17.44;59.99;102977.25;5025475;28;20060;-79
2021/09/21 06:07:34;;;;;;;15.32;3.70;;;;;;;17.58;60.09;102965.28;4991551;28;20014;-78
2021/09/21 06:10:00;;;;;;;16.27;4.45;;;;;;;17.32;60.78;102971.50;5015628;28;20033;-79
2021/09/21 06:12:25;;;;;;;14.80;4.60;;;;;;;17.42;60.22;102987.03;4995132;28;20036;-77
2021/09/21 06:14:51;;;;;;;10.93;4.93;;;;;;;17.59;59.71;102996.16;5030845;28;20108;-78
2021/09/21 06:17:16;;;;;;;13.82;4.03;;;;;;;17.86;59.73;102996.94;5012079;28;20041;-79
2021/09/21 06:19:42;;;;;;;13.70;3.80;;;;;;;17.98;58.50;102996.50;5003494;28;20049;-77
2021/09/21 06:22:07;;;;;;;13.88;4.38;;;;;;;18.15;58.29;103001.16;5012496;28;20056;-78
2021/09/21 06:24:33;;;;;;;19.77;3.88;;;;;;;18.16;57.83;103004.69;4968860;28;20022;-78
2021/09/21 06:26:58;;;;;;;11.00;4.25;;;;;;;18.17;58.24;102999.34;4990146;28;20030;-79
2021/09/21 06:29:24;;;;;;;18.95;4.15;;;;;;;18.31;57.14;103008.53;5003183;28;20036;-78
2021/09/21 06:31:49;;;;;;;13.07;3.97;;;;;;;18.28;57.68;103006.88;5001286;28;20069;-78
2021/09/21 06:34:14;;;;;;;10.05;4.05;;;;;;;18.19;57.26;103005.44;5005003;28;20348;-77
2021/09/21 06:36:40;;;;;;;18.25;4.00;;;;;;;18.37;57.84;103005.63;5013212;28;20344;-78
2021/09/21 06:39:05;;;;;;;21.70;6.10;;;;;;;16.64;56.78;103014.31;5004152;28;20045;-77
2021/09/21 06:41:31;;;;;;;16.67;5.85;;;;;;;15.56;59.74;103011.28;5021295;28;20252;-77
2021/09/21 06:43:56;;;;;;;18.52;6.22;;;;;;;14.82;61.08;103015.81;4986859;28;20042;-79
2021/09/21 06:46:22;;;;;;;22.05;6.22;;;;;;;15.08;61.45;103023.09;5034803;28;20033;-77
2021/09/21 06:48:47;;;;;;;18.48;6.03;;;;;;;14.71;61.54;103028.38;5042469;28;20032;-79
2021/09/21 06:51:13;;;;;;;18.85;7.25;;;;;;;15.70;60.34;103026.78;5011656;28;20037;-80
2021/09/21 06:53:38;;;;;;;14.25;5.50;;;;;;;16.55;57.59;103033.09;5020199;28;20053;-79
2021/09/21 06:56:04;;;;;;;19.90;6.15;;;;;;;16.90;57.54;103039.13;5009177;28;20043;-78
2021/09/21 06:58:29;;;;;;;17.77;6.18;;;;;;;16.39;55.86;103032.75;5006623;28;20350;-78
2021/09/21 07:00:55;;;;;;;19.88;6.65;;;;;;;16.52;57.53;103035.88;5006352;28;20067;-78
2021/09/21 07:03:20;;;;;;;19.48;6.25;;;;;;;16.94;57.55;103038.09;5029433;28;20037;-79
2021/09/21 07:05:46;;;;;;;11.68;6.90;;;;;;;17.37;59.63;103038.41;4997113;28;20033;-80
2021/09/21 07:08:11;;;;;;;16.80;6.68;;;;;;;16.95;59.04;103039.81;5005420;28;20045;-79
2021/09/21 07:10:37;;;;;;;17.98;6.30;;;;;;;17.71;57.68;103035.47;5008476;28;20325;-80
2021/09/21 07:13:02;;;;;;;14.85;5.90;;;;;;;18.57;56.04;103045.53;4989024;28;20034;-80
2021/09/21 07:15:28;;;;;;;16.35;6.65;;;;;;;19.09;54.18;103054.97;5004902;28;20033;-80
2021/09/21 07:17:53;;;;;;;25.58;4.78;;;;;;;19.53;55.89;103061.03;5023987;28;20041;-78
2021/09/21 07:20:25;;;;;;;19.58;5.15;;;;;;;19.88;54.58;103066.66;5007382;28;20055;-77
2021/09/21 07:22:51;;;;;;;23.80;5.03;;;;;;;20.09;54.32;103061.28;4997336;28;20041;-77
2021/09/21 07:25:18;;;;;;;14.25;4.25;;;;;;;20.21;54.05;103058.06;5007806;28;20029;-76
2021/09/21 07:27:44;;;;;;;33.55;4.47;;;;;;;20.39;53.16;103071.41;4996472;28;20033;-76
2021/09/21 07:30:10;;;;;;;15.48;4.45;;;;;;;20.49;52.76;103073.56;5016606;28;20049;-78
2021/09/21 07:32:36;;;;;;;22.85;4.75;;;;;;;20.57;53.02;103081.19;4994333;28;20160;-76
2021/09/21 07:35:02;;;;;;;28.20;5.07;;;;;;;20.63;52.48;103080.06;5007197;28;20048;-75
2021/09/21 07:37:27;;;;;;;19.88;4.38;;;;;;;20.75;52.06;103087.47;5011930;28;20045;-75
2021/09/21 07:39:53;;;;;;;13.23;4.32;;;;;;;20.84;51.75;103086.16;5033644;28;20313;-76
2021/09/21 07:42:18;;;;;;;19.23;3.97;;;;;;;20.95;51.63;103096.28;4987045;28;20055;-75
2021/09/21 07:44:45;;;;;;;22.13;4.60;;;;;;;21.01;51.29;103096.88;5006071;28;20036;-76
2021/09/21 07:47:10;;;;;;;13.80;4.13;;;;;;;21.14;50.97;103102.44;5021677;28;20071;-76
2021/09/21 07:49:36;;;;;;;14.02;3.85;;;;;;;21.31;50.30;103103.41;5009600;28;20112;-75
2021/09/21 07:52:01;;;;;;;17.40;4.03;;;;;;;21.50;49.91;103101.53;5020447;28;20048;-75
2021/09/21 07:54:27;;;;;;;10.48;3.40;;;;;;;21.73;49.24;103103.03;5022001;28;20309;-76
2021/09/21 07:56:52;;;;;;;13.95;4.13;;;;;;;21.90;48.42;103104.78;5026856;28;20045;-78
2021/09/21 07:59:18;;;;;;;13.98;3.70;;;;;;;22.07;48.01;103113.72;5002558;28;20068;-77
2021/09/21 08:01:44;;;;;;;15.82;3.55;;;;;;;22.12;47.88;103115.19;5006867;28;20040;-78
2021/09/21 08:04:11;;;;;;;24.20;4.68;;;;;;;22.04;47.79;103118.25;5009765;28;20328;-77
2021/09/21 08:06:37;;;;;;;12.93;3.87;;;;;;;22.38;47.19;103107.63;5005187;28;20047;-78
2021/09/21 08:09:03;;;;;;;13.18;3.67;;;;;;;22.60;46.66;103101.94;5010778;28;20241;-79
2021/09/21 08:11:28;;;;;;;16.40;4.00;;;;;;;22.78;46.35;103102.72;5004093;28;20033;-78
2021/09/21 08:13:54;;;;;;;15.60;3.45;;;;;;;22.99;45.89;103101.47;5041062;28;20257;-78
2021/09/21 08:16:19;;;;;;;14.85;3.95;;;;;;;22.95;46.05;103096.38;5003739;28;20034;-79
2021/09/21 08:18:45;;;;;;;20.02;3.75;;;;;;;23.24;44.99;103104.56;4989057;28;20113;-79
2021/09/21 08:21:10;;;;;;;15.57;4.05;;;;;;;23.47;44.51;103101.38;4999422;28;20037;-80
2021/09/21 08:23:36;;;;;;;14.30;3.13;;;;;;;23.68;44.13;103101.03;5006929;28;20345;-79
2021/09/21 08:26:01;;;;;;;13.60;3.42;;;;;;;23.89;43.56;103104.25;5011989;28;20037;-80
2021/09/21 08:28:27;;;;;;;19.80;4.10;;;;;;;24.22;42.79;103105.75;5019177;28;20025;-79
2021/09/21 08:30:52;;;;;;;15.98;3.58;;;;;;;24.32;42.60;103105.09;5000161;28;20034;-79
2021/09/21 08:33:18;;;;;;;12.00;3.83;;;;;;;24.56;41.79;103107.19;4974627;28;20026;-78
2021/09/21 08:35:43;;;;;;;9.07;3.08;;;;;;;24.79;41.48;103110.16;4999011;28;20105;-77
2021/09/21 08:38:09;;;;;;;22.10;3.88;;;;;;;24.74;41.61;103107.81;5030610;28;20040;-75
2021/09/21 08:40:34;;;;;;;15.38;3.38;;;;;;;24.89;40.95;103109.47;4992852;28;20042;-75
2021/09/21 08:43:00;;;;;;;10.32;2.90;;;;;;;25.01;40.65;103113.16;4996536;28;20055;-77
2021/09/21 08:45:26;;;;;;;11.43;3.78;;;;;;;24.97;40.53;103108.09;5035031;28;20056;-76
2021/09/21 08:47:51;;;;;;;12.88;3.45;;;;;;;24.88;41.11;103110.41;5019223;28;20057;-78
2021/09/21 08:50:17;;;;;;;13.20;3.80;;;;;;;25.07;40.30;103110.06;5020522;28;20090;-78
2021/09/21 08:52:46;;;;;;;17.65;3.40;;;;;;;25.19;40.36;103100.31;5018045;28;20025;-77
2021/09/21 08:55:15;;;;;;;14.85;4.30;;;;;;;25.43;39.41;103113.94;4999914;28;20052;-77
2021/09/21 08:57:40;;;;;;;15.68;3.42;;;;;;;25.38;39.41;103110.72;5014614;28;20063;-78
2021/09/21 09:00:08;;;;;;;9.25;3.15;;;;;;;25.74;38.83;103111.81;5029202;28;20224;-76
2021/09/21 09:02:33;;;;;;;11.80;3.77;;;;;;;25.96;38.48;103119.25;5027462;28;20036;-77
2021/09/21 09:05:11;;;;;;;13.25;3.95;;;;;;;26.09;38.24;103111.19;5018072;28;20021;-76
2021/09/21 09:07:50;;;;;;;25.42;4.00;;;;;;;26.45;37.09;103122.94;5028895;28;20036;-76
2021/09/21 09:10:16;;;;;;;22.42;4.57;;;;;;;26.22;37.51;103121.91;4991941;28;20037;-76
2021/09/21 09:12:41;;;;;;;43.70;5.18;;;;;;;26.26;37.60;103109.97;5014364;28;20354;-76
2021/09/21 09:15:14;;;;;;;19.00;3.78;;;;;;;26.30;37.37;103124.03;5011973;28;20041;-76
2021/09/21 09:17:56;;;;;;;12.18;3.33;;;;;;;26.26;37.46;103117.19;5004892;28;20120;-75
2021/09/21 09:20:35;;;;;;;20.30;4.38;;;;;;;25.99;38.05;103112.81;4988296;28;20418;-76
2021/09/21 09:23:01;;;;;;;43.90;5.55;;;;;;;26.32;37.38;103117.56;5016978;28;20027;-76
2021/09/21 09:25:27;;;;;;;17.63;3.92;;;;;;;26.64;36.68;103113.56;5005787;28;20029;-76
2021/09/21 09:27:52;;;;;;;10.48;3.28;;;;;;;26.86;36.42;103119.03;4986968;28;20256;-76
2021/09/21 09:30:20;;;;;;;13.73;4.22;;;;;;;26.73;36.53;103124.47;5014976;28;20041;-75
2021/09/21 09:32:47;;;;;;;;;;;;;;;27.05;35.66;103117.66;4990954;28;20022;-77
2021/09/21 09:35:21;;;;;;;15.57;3.38;;;;;;;27.04;36.11;103116.81;5012293;28;20155;-75
2021/09/21 09:37:47;;;;;;;10.38;3.05;;;;;;;27.49;35.20;103111.63;4997506;28;20061;-76
2021/09/21 09:40:12;;;;;;;16.90;3.25;;;;;;;27.96;34.16;103111.59;5013490;28;20113;-76
2021/09/21 09:42:44;;;;;;;19.83;3.05;;;;;;;28.13;33.99;103123.69;4994839;28;20157;-75
2021/09/21 09:45:10;;;;;;;13.80;3.25;;;;;;;28.54;33.17;103119.50;5006769;28;20104;-76
2021/09/21 09:47:48;;;;;;;14.13;3.17;;;;;;;28.72;32.40;103122.50;5004568;28;20338;-76
2021/09/21 09:50:17;;;;;;;11.60;3.10;;;;;;;29.01;32.17;103128.16;4990273;28;20053;-76
2021/09/21 09:52:42;;;;;;;23.38;3.30;;;;;;;28.31;33.49;103130.28;5002382;28;20026;-76
2021/09/21 09:55:08;;;;;;;9.68;2.90;;;;;;;29.10;31.78;103121.16;4995622;28;20049;-77
2021/09/21 09:57:33;;;;;;;12.32;3.35;;;;;;;29.42;31.67;103120.28;5012949;28;20050;-77
2021/09/21 09:59:59;;;;;;;13.75;3.60;;;;;;;29.41;31.38;103116.72;4983011;28;20120;-76
2021/09/21 10:02:25;;;;;;;19.85;3.38;;;;;;;29.39;31.33;103117.84;5020882;28;20046;-76
2021/09/21 10:04:50;;;;;;;9.80;2.95;;;;;;;29.39;31.16;103118.69;5000428;28;20038;-78
2021/09/21 10:07:16;;;;;;;11.80;2.72;;;;;;;29.39;31.61;103115.16;5024695;28;20118;-76
2021/09/21 10:09:42;;;;;;;10.75;3.03;;;;;;;29.46;31.39;103124.44;4998367;28;20036;-75
2021/09/21 10:12:07;;;;;;;7.13;2.80;;;;;;;29.27;31.12;103117.94;5005907;28;20038;-76
2021/09/21 10:14:33;;;;;;;10.27;3.30;;;;;;;29.10;31.63;103118.47;5010221;28;20087;-76
2021/09/21 10:16:59;;;;;;;8.57;2.85;;;;;;;28.84;31.95;103120.66;5001570;28;20318;-76
2021/09/21 10:19:24;;;;;;;6.65;2.65;;;;;;;28.79;32.27;103121.03;5007990;28;20026;-76
2021/09/21 10:21:50;;;;;;;6.65;2.63;;;;;;;28.54;32.53;103108.72;5005685;28;20084;-76
2021/09/21 10:24:16;;;;;;;12.25;2.65;;;;;;;28.66;32.50;103120.34;5017516;28;20033;-77
2021/09/21 10:26:43;;;;;;;8.75;2.42;;;;;;;28.61;32.39;103112.63;5006287;28;20062;-78
2021/09/21 10:29:08;;;;;;;4.70;2.47;;;;;;;28.33;33.19;103116.69;5001904;28;20033;-77
2021/09/21 10:31:36;;;;;;;6.78;2.83;;;;;;;27.48;34.66;103114.41;5007277;28;20080;-77
2021/09/21 10:34:15;;;;;;;6.03;2.53;;;;;;;27.02;35.38;103118.75;4991245;28;20096;-76
2021/09/21 10:36:54;;;;;;;6.95;2.22;;;;;;;27.09;34.98;103114.63;5005346;28;20304;-77
2021/09/21 10:39:21;;;;;;;8.88;2.60;;;;;;;26.81;35.32;103111.34;5007929;28;20097;-76
2021/09/21 10:41:54;;;;;;;10.43;2.65;;;;;;;27.27;34.81;103114.22;5026380;28;20033;-76
2021/09/21 10:44:20;;;;;;;13.82;2.63;;;;;;;27.09;34.67;103111.94;5005127;28;20049;-76
2021/09/21 10:46:52;;;;;;;7.30;2.45;;;;;;;27.16;34.66;103107.81;5019633;28;20361;-76
2021/09/21 10:49:22;;;;;;;12.68;2.58;;;;;;;27.00;35.37;103104.56;5029665;28;20037;-76
2021/09/21 10:51:48;;;;;;;9.07;2.30;;;;;;;26.90;35.01;103112.47;5005648;28;20029;-76
2021/09/21 10:54:14;;;;;;;6.10;2.72;;;;;;;26.99;35.39;103111.75;5005390;28;20096;-76
2021/09/21 10:56:40;;;;;;;6.97;2.58;;;;;;;27.12;35.31;103124.28;4999900;28;20034;-76
2021/09/21 10:59:13;;;;;;;10.00;2.10;;;;;;;26.97;35.30;103115.56;5023296;28;20398;-77
2021/09/21 11:01:46;;;;;;;6.30;2.45;;;;;;;26.37;36.19;103118.09;5014080;28;20102;-78
2021/09/21 11:04:14;;;;;;;8.80;2.58;;;;;;;25.13;38.80;103111.47;5018785;28;20069;-76
2021/09/21 11:06:46;;;;;;;14.05;2.47;;;;;;;24.53;40.13;103112.72;5004472;28;20101;-75
2021/09/21 11:09:11;;;;;;;10.40;1.88;;;;;;;24.09;41.43;103114.56;5012589;28;20049;-76
2021/09/21 11:11:37;;;;;;;4.53;2.20;;;;;;;24.13;40.97;103115.22;5013568;28;20046;-76
2021/09/21 11:14:02;;;;;;;10.77;2.58;;;;;;;24.17;40.94;103127.44;5004034;28;20034;-77
2021/09/21 11:16:28;;;;;;;6.78;2.60;;;;;;;23.87;41.94;103122.22;5007684;28;20211;-76
2021/09/21 11:18:54;;;;;;;8.90;2.05;;;;;;;23.66;42.83;103119.84;5004156;28;20034;-76
2021/09/21 11:21:20;;;;;;;8.02;2.42;;;;;;;23.70;43.02;103110.69;5026469;28;20060;-76
2021/09/21 11:23:45;;;;;;;7.65;2.05;;;;;;;23.79;42.38;103116.41;5033635;28;20353;-75
2021/09/21 11:26:12;;;;;;;8.95;2.05;;;;;;;23.85;42.41;103113.38;5009035;28;20046;-77
2021/09/21 11:28:41;;;;;;;9.80;2.25;;;;;;;23.84;42.37;103114.34;4997322;28;20101;-76
2021/09/21 11:31:07;;;;;;;14.55;2.60;;;;;;;23.76;42.36;103110.31;4996929;28;20381;-76
2021/09/21 11:33:34;;;;;;;11.85;2.75;;;;;;;23.83;42.54;103104.59;5003104;28;20105;-77